Home > Products > Valid Products > TAF

000
FTUS46 KMTR 231100
TAFSNS
TAF
KSNS 231122Z 2312/2412 VRB04KT P6SM BKN200
     FM231900 26010KT P6SM BKN200
     FM240400 28005KT P6SM SCT010
     FM240600 VRB03KT P6SM OVC010=



000
FTUS46 KMTR 231100
TAFSTS
TAF
KSTS 231122Z 2312/2412 00000KT P6SM BKN020
     FM231800 VRB03KT P6SM -RA SCT025 OVC050
     FM240400 VRB03KT P6SM BKN015=



000
FTUS46 KMTR 231100
TAFOAK
TAF
KOAK 231122Z 2312/2418 27003KT P6SM BKN020
     FM231800 26006KT P6SM SCT025 BKN150
     FM232000 25010KT P6SM BKN150
     FM240400 31006KT P6SM SCT025
     FM240600 35004KT P6SM OVC020
     FM241200 12004KT P6SM OVC015=



000
FTUS46 KMTR 231100
TAFSJC
TAF
KSJC 231122Z 2312/2412 30005KT P6SM BKN250
     FM231300 VRB03KT P6SM SCT020 BKN200
     FM231900 31008KT P6SM OVC200
     FM240400 31003KT P6SM BKN200
     FM240800 16003KT P6SM SCT020 BKN150=



000
FTUS46 KMTR 231100
TAFSFO
TAF
KSFO 231122Z 2312/2418 26003KT P6SM BKN020
     FM231800 29006KT P6SM SCT025 BKN150
     FM232000 27012KT P6SM BKN150
     FM240500 31005KT P6SM SCT020 BKN150
     FM240700 VRB03KT P6SM OVC015
     FM241400 12005KT P6SM OVC015=



000
FTUS46 KMTR 231100
TAFMRY
TAF
KMRY 231122Z 2312/2412 VRB03KT P6SM BKN200
     FM231900 29005KT P6SM BKN200
     FM240400 VRB03KT P6SM SCT010
     FM240600 VRB03KT P6SM OVC008=



000
FTUS46 KMTR 231000 AAA
TAFSTS
TAF AMD
KSTS 231042Z 2311/2406 00000KT P6SM SCT020 BKN150
     FM231200 00000KT P6SM BKN020
     FM231800 VRB03KT P6SM VCSH SCT025 OVC050=



000
FTUS46 KMTR 230900 AAA
TAFSFO
TAF AMD
KSFO 230910Z 2309/2412 29008KT P6SM FEW010 BKN150
     FM231200 26003KT P6SM BKN015
     FM231800 29009KT P6SM FEW008 SCT015 OVC100
     FM240900 VRB03KT P6SM OVC015=



000
FTUS46 KMTR 230900 AAA
TAFSNS
TAF AMD
KSNS 230910Z 2309/2406 29003KT P6SM SKC
     FM231200 VRB04KT P6SM BKN005
     FM231900 26004KT P6SM FEW008 SCT250
     FM232100 28012KT P6SM SCT250
     FM240200 28005KT P6SM BKN015=



000
FTUS46 KMTR 230900 AAA
TAFMRY
TAF AMD
KMRY 230909Z 2309/2406 15004KT P6SM SKC
     FM231200 VRB03KT P6SM OVC005
     FM231900 29005KT P6SM FEW008 SCT250
     FM240400 VRB03KT P6SM OVC007=



000
FTUS46 KMTR 230800 AAA
TAFOAK
TAF AMD
KOAK 230838Z 2309/2412 31005KT P6SM FEW150 BKN200
     FM231200 27003KT P6SM BKN015
     FM231800 26006KT P6SM SCT015 OVC100
     FM240300 31006KT P6SM OVC050=



000
FTUS46 KMTR 230500
TAFOAK
TAF
KOAK 230520Z 2306/2412 31005KT P6SM FEW150 BKN200
     FM230900 27003KT P6SM BKN015
     FM231800 26006KT P6SM SCT015 OVC100
     FM240300 31006KT P6SM OVC050=



000
FTUS46 KMTR 230500
TAFSJC
TAF
KSJC 230520Z 2306/2406 30005KT P6SM BKN250
     FM231300 VRB03KT P6SM SCT015 BKN200
     FM231900 31008KT P6SM OVC200
     FM240400 31003KT P6SM BKN250=



000
FTUS46 KMTR 230500
TAFMRY
TAF
KMRY 230520Z 2306/2406 15004KT P6SM SKC
     FM230900 VRB03KT P6SM OVC005
     FM231100 VRB03KT P6SM OVC003
     FM231900 29005KT P6SM FEW008 SCT250
     FM240400 VRB03KT P6SM OVC007=



000
FTUS46 KMTR 230500
TAFSFO
TAF
KSFO 230520Z 2306/2412 29008KT P6SM FEW010 BKN150
     FM231000 26003KT P6SM BKN015
     FM231800 29009KT P6SM FEW008 SCT015 OVC100
     FM240900 VRB03KT P6SM OVC015=



000
FTUS46 KMTR 230500
TAFSTS
TAF
KSTS 230520Z 2306/2406 00000KT P6SM FEW050 BKN250
     FM230800 00000KT P6SM BKN008
     FM231000 00000KT 3SM BR OVC004
     FM231800 VRB03KT P6SM FEW008 OVC050=



000
FTUS46 KMTR 230500
TAFSNS
TAF
KSNS 230520Z 2306/2406 29003KT P6SM SKC
     FM231000 VRB04KT P6SM BKN005
     FM231900 26004KT P6SM FEW008 SCT250
     FM232100 28012KT P6SM SCT250
     FM240200 28005KT P6SM BKN015=



000
FTUS46 KMTR 230300 AAA
TAFSFO
TAF AMD
KSFO 230307Z 2303/2406 28013KT P6SM FEW010 BKN150
     FM230400 27008KT P6SM FEW010 BKN150
     FM231000 26003KT P6SM BKN015
     FM231800 29009KT P6SM FEW008 SCT015 OVC100=



000
FTUS46 KMTR 222300
TAFSNS
TAF
KSNS 222339Z 2300/2324 27008KT P6SM SCT250
     FM230800 VRB04KT P6SM BKN005
     FM231900 26004KT P6SM FEW008 SCT250
     FM232100 28012KT P6SM SCT250=



000
FTUS46 KMTR 222300
TAFMRY
TAF
KMRY 222339Z 2300/2324 29008KT P6SM SCT250
     FM230100 22004KT P6SM SCT250
     FM230800 VRB03KT P6SM OVC005
     FM231100 VRB03KT P6SM OVC003
     FM231900 29005KT P6SM FEW008 SCT250=



000
FTUS46 KMTR 222300
TAFOAK
TAF
KOAK 222339Z 2300/2406 27006KT P6SM BKN200
     FM230900 27003KT P6SM BKN015
     FM231800 26006KT P6SM SCT015 OVC100
     FM240300 31006KT P6SM BKN100=



000
FTUS46 KMTR 222300
TAFSTS
TAF
KSTS 222339Z 2300/2324 20005KT P6SM SCT050 BKN250
     FM230300 00000KT P6SM SCT050 BKN200
     FM230800 00000KT P6SM BKN008
     FM231000 00000KT 3SM BR OVC004
     FM231800 VRB03KT P6SM FEW008 OVC050=



000
FTUS46 KMTR 222300
TAFSJC
TAF
KSJC 222339Z 2300/2324 30009KT P6SM FEW080 SCT130 BKN200
     FM230600 00000KT P6SM BKN200
     FM231300 VRB03KT P6SM SCT015 BKN200
     FM231900 31008KT P6SM OVC200=



000
FTUS46 KMTR 222300
TAFSFO
TAF
KSFO 222339Z 2300/2406 30008KT P6SM BKN200
     FM230300 27008KT P6SM BKN250
     FM231000 26003KT P6SM BKN015
     FM231800 29009KT P6SM FEW008 SCT015 OVC100=



000
FTUS46 KMTR 222100 AAA
TAFSFO
TAF AMD
KSFO 222101Z 2221/2324 29014KT P6SM BKN200
     FM230300 27008KT P6SM BKN250
     FM231000 26003KT P6SM BKN015
     FM231800 29009KT P6SM FEW008 SCT015=



000
FTUS46 KMTR 221700
TAFMRY
TAF
KMRY 221729Z 2218/2318 28008KT P6SM SCT250
     FM230100 22004KT P6SM SCT250
     FM230800 VRB03KT P6SM BKN015
     FM231300 VRB03KT P6SM BKN007=



000
FTUS46 KMTR 221700
TAFSJC
TAF
KSJC 221729Z 2218/2318 VRB03KT P6SM FEW080 BKN180
     FM222100 30008KT P6SM BKN200
     FM230500 VRB03KT P6SM BKN250
     FM231300 VRB03KT P6SM SCT015 BKN250=



000
FTUS46 KMTR 221700
TAFSFO
TAF
KSFO 221729Z 2218/2324 VRB05KT P6SM FEW020 SCT200
     FM222100 28014KT P6SM SCT250
     FM230300 27008KT P6SM BKN250
     FM231000 26003KT P6SM BKN015
     FM231800 29009KT P6SM FEW008 SCT015=



000
FTUS46 KMTR 221700
TAFSNS
TAF
KSNS 221729Z 2218/2318 VRB04KT P6SM SCT250
     FM222000 28010KT P6SM FEW250
     FM230300 30004KT P6SM SCT250
     FM231000 VRB03KT P6SM BKN012=



000
FTUS46 KMTR 221700
TAFSTS
TAF
KSTS 221729Z 2218/2318 VRB03KT P6SM SCT200
     FM222000 24006KT P6SM BKN200
     FM230300 VRB03KT P6SM BKN200
     FM230700 VRB03KT P6SM BKN008
     FM231000 VRB03KT 4SM BR OVC007=



000
FTUS46 KMTR 221700
TAFOAK
TAF
KOAK 221729Z 2218/2324 VRB03KT P6SM FEW030 SCT200
     FM222000 28010KT P6SM SCT250
     FM230900 28004KT P6SM BKN015
     FM231800 26006KT P6SM SCT015=



000
FTUS46 KMTR 221700
TAFSFO
TAF
KSFO 221729Z 2218/2324 VRB05KT P6SM FEW020 SCT200
     FM222100 28014KT P6SM SCT250
     FM230300 27008KT P6SM BKN250
     FM231000 26003KT P6SM BKN015
     FM231800 29009KT P6SM FEW008 SCT015=



000
FTUS46 KMTR 221700
TAFMRY
TAF
KMRY 221729Z 2218/2318 28008KT P6SM SCT250
     FM230100 22004KT P6SM SCT250
     FM230800 VRB03KT P6SM BKN015
     FM231300 VRB03KT P6SM BKN007=



000
FTUS46 KMTR 221700
TAFSNS
TAF
KSNS 221729Z 2218/2318 VRB04KT P6SM SCT250
     FM222000 28010KT P6SM FEW250
     FM230300 30004KT P6SM SCT250
     FM231000 VRB03KT P6SM BKN012=



000
FTUS46 KMTR 221700
TAFSTS
TAF
KSTS 221729Z 2218/2318 VRB03KT P6SM SCT200
     FM222000 24006KT P6SM BKN200
     FM230300 VRB03KT P6SM BKN200
     FM230700 VRB03KT P6SM BKN008
     FM231000 VRB03KT 4SM BR OVC007=



000
FTUS46 KMTR 221700
TAFOAK
TAF
KOAK 221729Z 2218/2324 VRB03KT P6SM FEW030 SCT200
     FM222000 28010KT P6SM SCT250
     FM230900 28004KT P6SM BKN015
     FM231800 26006KT P6SM SCT015=



000
FTUS46 KMTR 221700
TAFSJC
TAF
KSJC 221729Z 2218/2318 VRB03KT P6SM FEW080 BKN180
     FM222100 30008KT P6SM BKN200
     FM230500 VRB03KT P6SM BKN250
     FM231300 VRB03KT P6SM SCT015 BKN250=



000
FTUS46 KMTR 221500 AAA
TAFSFO
TAF AMD
KSFO 221501Z 2215/2318 29005KT P6SM SCT200
     FM222100 28014KT P6SM SCT250
     FM230300 27008KT P6SM BKN250
     FM231000 26003KT P6SM BKN015=



000
FTUS46 KMTR 221100
TAFSFO
TAF
KSFO 221120Z 2212/2318 29005KT P6SM FEW250
     FM222100 28014KT P6SM SCT250
     FM230300 27008KT P6SM BKN250
     FM231000 26003KT P6SM BKN015=



000
FTUS46 KMTR 221100
TAFSTS
TAF
KSTS 221120Z 2212/2312 VRB03KT P6SM SCT200
     FM222000 24006KT P6SM BKN200
     FM230300 VRB03KT P6SM BKN200
     FM230700 VRB03KT P6SM BKN008=



000
FTUS46 KMTR 221100
TAFOAK
TAF
KOAK 221120Z 2212/2318 VRB03KT P6SM FEW030
     FM222000 28010KT P6SM SCT250
     FM230600 28006KT P6SM BKN015=



000
FTUS46 KMTR 221100
TAFSJC
TAF
KSJC 221120Z 2212/2312 VRB03KT P6SM FEW250
     FM222100 30008KT P6SM BKN250
     FM230500 VRB03KT P6SM BKN250=



000
FTUS46 KMTR 221100
TAFMRY
TAF
KMRY 221120Z 2212/2312 08005KT P6SM FEW250
     FM221900 28008KT P6SM SCT250
     FM230100 22004KT P6SM SCT250
     FM230400 VRB03KT P6SM BKN015=



000
FTUS46 KMTR 221100
TAFSNS
TAF
KSNS 221120Z 2212/2312 09005KT P6SM FEW250
     FM222000 28010KT P6SM FEW250
     FM230300 30004KT P6SM SCT250
     FM230600 VRB03KT P6SM BKN015=



000
FTUS46 KMTR 220900 AAA
TAFSFO
TAF AMD
KSFO 220917Z 2209/2312 VRB03KT P6SM FEW250
     FM222100 28014KT P6SM SCT250
     FM230300 27008KT P6SM BKN250
     FM230800 26003KT P6SM BKN015=



000
FTUS46 KMTR 220500
TAFSFO
TAF
KSFO 220520Z 2206/2312 28006KT P6SM FEW010
     FM221500 VRB03KT P6SM FEW250
     FM221700 27006KT P6SM SCT250
     FM222200 28015KT P6SM SCT250
     FM230300 27008KT P6SM BKN250
     FM230800 26003KT P6SM BKN015=



000
FTUS46 KMTR 220500
TAFOAK
TAF
KOAK 220520Z 2206/2312 31004KT P6SM SKC
     FM221400 VRB03KT P6SM FEW250
     FM221800 22004KT P6SM FEW250
     FM222000 28010KT P6SM SCT250
     FM230600 28006KT P6SM BKN015=



000
FTUS46 KMTR 220500
TAFMRY
TAF
KMRY 220520Z 2206/2306 00000KT P6SM SKC
     FM220900 VRB03KT P6SM SKC
     FM221700 28006KT P6SM SKC
     FM230200 23003KT P6SM BKN015=



000
FTUS46 KMTR 220500
TAFSTS
TAF
KSTS 220520Z 2206/2306 00000KT P6SM SKC
     FM222000 27006KT P6SM BKN200
     FM222200 22005KT P6SM BKN200
     FM230300 VRB03KT P6SM BKN200=



000
FTUS46 KMTR 220500
TAFSFO
TAF
KSFO 220520Z 2206/2312 28006KT P6SM FEW010
     FM221500 VRB03KT P6SM FEW250
     FM221700 27006KT P6SM SCT250
     FM222200 28015KT P6SM SCT250
     FM230300 27008KT P6SM BKN250
     FM230800 26003KT P6SM BKN015=



000
FTUS46 KMTR 220500
TAFSNS
TAF
KSNS 220520Z 2206/2306 22005KT P6SM SKC
     FM221000 VRB03KT P6SM SKC
     FM221700 12005KT P6SM SKC
     FM222000 28012KT P6SM SKC
     FM230300 28006KT P6SM BKN015=



000
FTUS46 KMTR 220500
TAFSJC
TAF
KSJC 220520Z 2206/2306 29003KT P6SM SKC
     FM220800 00000KT P6SM FEW250
     FM221700 VRB03KT P6SM BKN250
     FM222100 30008KT P6SM BKN250
     FM230500 VRB03KT P6SM BKN250=



000
FTUS46 KMTR 220500
TAFSNS
TAF
KSNS 220520Z 2206/2306 22005KT P6SM SKC
     FM221000 VRB03KT P6SM SKC
     FM221700 12005KT P6SM SKC
     FM222000 28012KT P6SM SKC
     FM230300 28006KT P6SM BKN015=



000
FTUS46 KMTR 220500
TAFMRY
TAF
KMRY 220520Z 2206/2306 00000KT P6SM SKC
     FM220900 VRB03KT P6SM SKC
     FM221700 28006KT P6SM SKC
     FM230200 23003KT P6SM BKN015=



000
FTUS46 KMTR 220500
TAFOAK
TAF
KOAK 220520Z 2206/2312 31004KT P6SM SKC
     FM221400 VRB03KT P6SM FEW250
     FM221800 22004KT P6SM FEW250
     FM222000 28010KT P6SM SCT250
     FM230600 28006KT P6SM BKN015=



000
FTUS46 KMTR 220500
TAFSJC
TAF
KSJC 220520Z 2206/2306 29003KT P6SM SKC
     FM220800 00000KT P6SM FEW250
     FM221700 VRB03KT P6SM BKN250
     FM222100 30008KT P6SM BKN250
     FM230500 VRB03KT P6SM BKN250=



000
FTUS46 KMTR 220500
TAFSTS
TAF
KSTS 220520Z 2206/2306 00000KT P6SM SKC
     FM222000 27006KT P6SM BKN200
     FM222200 22005KT P6SM BKN200
     FM230300 VRB03KT P6SM BKN200=



000
FTUS46 KMTR 212300
TAFSJC
TAF
KSJC 212335Z 2200/2224 30013KT P6SM FEW140 SCT250
     FM220200 31006KT P6SM SCT250
     FM220400 VRB04KT P6SM FEW250
     FM220800 00000KT P6SM FEW250
     FM221700 VRB03KT P6SM BKN250
     FM222100 30008KT P6SM BKN250=



000
FTUS46 KMTR 212300
TAFSNS
TAF
KSNS 212335Z 2200/2224 27014KT P6SM SKC
     FM220200 28005KT P6SM SKC
     FM220900 VRB03KT P6SM BKN015
     FM221700 12005KT P6SM SCT015
     FM222000 28012KT P6SM SKC=



000
FTUS46 KMTR 212300
TAFSFO
TAF
KSFO 212335Z 2200/2306 28015KT P6SM SCT180
     FM220300 28006KT P6SM FEW250
     FM221500 VRB03KT P6SM BKN015
     FM221700 27006KT P6SM SCT015
     FM222200 28015KT P6SM SCT250
     FM230300 27008KT P6SM BKN250=



000
FTUS46 KMTR 212300
TAFMRY
TAF
KMRY 212335Z 2200/2224 28010KT P6SM SKC
     FM220300 VRB04KT P6SM SKC
     FM220900 VRB03KT P6SM BKN015
     FM221700 28006KT P6SM SCT015=



000
FTUS46 KMTR 212300
TAFSTS
TAF
KSTS 212335Z 2200/2224 26005KT P6SM SCT250
     FM220500 VRB03KT P6SM SCT250
     FM222000 27006KT P6SM BKN200=



000
FTUS46 KMTR 212300
TAFOAK
TAF
KOAK 212335Z 2200/2306 29012KT P6SM FEW015 SCT220
     FM220400 29004KT P6SM FEW250
     FM221400 VRB03KT P6SM BKN015
     FM221800 22004KT P6SM FEW015
     FM222000 28010KT P6SM SCT250
     FM230500 28006KT P6SM BKN250=



000
FTUS46 KMTR 212100 AAA
TAFSFO
TAF AMD
KSFO 212101Z 2121/2224 01009KT P6SM SCT180
     FM220300 28006KT P6SM SKC
     FM221500 VRB03KT P6SM BKN015
     FM221700 27006KT P6SM SCT015
     FM222200 28010KT P6SM SCT250=



000
FTUS46 KMTR 211700
TAFMRY
TAF
KMRY 211739Z 2118/2218 04006KT P6SM SKC
     FM212000 32009KT P6SM SKC
     FM220300 VRB04KT P6SM SKC
     FM220900 30003KT P6SM BKN015
     FM221700 27004KT P6SM SCT015=



000
FTUS46 KMTR 211700
TAFSTS
TAF
KSTS 211739Z 2118/2218 01004KT P6SM SKC
     FM212100 28005KT P6SM SKC
     FM220300 VRB03KT P6SM SKC
     FM221600 32004KT P6SM BKN200=



000
FTUS46 KMTR 211700
TAFSFO
TAF
KSFO 211739Z 2118/2224 03004KT P6SM FEW020 SCT180
     FM212100 28015KT P6SM SKC
     FM220300 28006KT P6SM SKC
     FM221400 VRB03KT P6SM BKN015
     FM221800 27006KT P6SM SCT015
     FM222200 28010KT P6SM SCT250=



000
FTUS46 KMTR 211700
TAFSNS
TAF
KSNS 211739Z 2118/2218 34008KT P6SM SKC
     FM212000 28013KT P6SM SKC
     FM220200 28005KT P6SM SKC
     FM220900 VRB03KT P6SM BKN015
     FM221700 12005KT P6SM SCT015=



000
FTUS46 KMTR 211700
TAFSJC
TAF
KSJC 211739Z 2118/2218 30007KT P6SM FEW028 SCT100 SCT150
     FM212300 30014KT P6SM SKC
     FM220200 31006KT P6SM SKC
     FM220400 VRB04KT P6SM SKC
     FM221400 00000KT P6SM BKN015=



000
FTUS46 KMTR 211700
TAFOAK
TAF
KOAK 211739Z 2118/2224 31006KT P6SM FEW020 SCT180
     FM212100 29012KT P6SM SKC
     FM220400 29004KT P6SM SKC
     FM221400 VRB03KT P6SM BKN015
     FM221800 22004KT P6SM SCT015
     FM222200 28010KT P6SM SCT250=



000
FTUS46 KMTR 211500 AAA
TAFSFO
TAF AMD
KSFO 211533Z 2116/2218 30005KT P6SM FEW020
     FM212100 28015KT P6SM SKC
     FM220300 28006KT P6SM SKC=



000
FTUS46 KMTR 211500 AAA
TAFSFO
TAF AMD
KSFO 211533Z 2116/2218 30005KT P6SM FEW020
     FM212100 28015KT P6SM SKC
     FM220300 28006KT P6SM SKC=



000
FTUS46 KMTR 211100
TAFMRY
TAF
KMRY 211128Z 2112/2212 08005KT P6SM SKC
     FM212000 29008KT P6SM SKC
     FM220300 VRB04KT P6SM SKC=



000
FTUS46 KMTR 211100
TAFOAK
TAF
KOAK 211128Z 2112/2218 VRB04KT P6SM SKC
     FM212100 29012KT P6SM SKC
     FM220400 29005KT P6SM SKC=



000
FTUS46 KMTR 211100
TAFSTS
TAF
KSTS 211128Z 2112/2212 33005KT P6SM SKC
     FM212100 28005KT P6SM SKC
     FM220300 VRB03KT P6SM SKC=



000
FTUS46 KMTR 211100
TAFSFO
TAF
KSFO 211128Z 2112/2218 25005KT P6SM SKC
     FM212100 28015KT P6SM SKC
     FM220300 28006KT P6SM SKC=



000
FTUS46 KMTR 211100
TAFSJC
TAF
KSJC 211128Z 2112/2212 VRB03KT P6SM SKC
     FM212000 31008KT P6SM SKC
     FM220500 VRB04KT P6SM SKC=



000
FTUS46 KMTR 211100
TAFSNS
TAF
KSNS 211128Z 2112/2212 VRB03KT P6SM SKC
     FM211600 14006KT P6SM SKC
     FM212000 28013KT P6SM SKC
     FM220200 28004KT P6SM SKC=



000
FTUS46 KMTR 211100
TAFSNS
TAF
KSNS 211128Z 2112/2212 VRB03KT P6SM SKC
     FM211600 14006KT P6SM SKC
     FM212000 28013KT P6SM SKC
     FM220200 28004KT P6SM SKC=



000
FTUS46 KMTR 211100
TAFMRY
TAF
KMRY 211128Z 2112/2212 08005KT P6SM SKC
     FM212000 29008KT P6SM SKC
     FM220300 VRB04KT P6SM SKC=



000
FTUS46 KMTR 211100
TAFSFO
TAF
KSFO 211128Z 2112/2218 25005KT P6SM SKC
     FM212100 28015KT P6SM SKC
     FM220300 28006KT P6SM SKC=



000
FTUS46 KMTR 211100
TAFOAK
TAF
KOAK 211128Z 2112/2218 VRB04KT P6SM SKC
     FM212100 29012KT P6SM SKC
     FM220400 29005KT P6SM SKC=



000
FTUS46 KMTR 211100
TAFSJC
TAF
KSJC 211128Z 2112/2212 VRB03KT P6SM SKC
     FM212000 31008KT P6SM SKC
     FM220500 VRB04KT P6SM SKC=



000
FTUS46 KMTR 211100
TAFSTS
TAF
KSTS 211128Z 2112/2212 33005KT P6SM SKC
     FM212100 28005KT P6SM SKC
     FM220300 VRB03KT P6SM SKC=



000
FTUS46 KMTR 210900 AAA
TAFSFO
TAF AMD
KSFO 210905Z 2109/2212 28005KT P6SM SKC
     FM212100 28015KT P6SM SKC
     FM220300 28006KT P6SM SKC=



000
FTUS46 KMTR 210800 AAA
TAFMRY
TAF AMD
KMRY 210800Z 2108/2206 VRB04KT P6SM SKC
     FM211900 28008KT P6SM SKC
     FM220300 VRB04KT P6SM SKC=



000
FTUS46 KMTR 210500
TAFMRY
TAF
KMRY 210534Z 2106/2206 00000KT P6SM SKC
      TEMPO 2107/2111 BKN015
     FM211500 VRB04KT P6SM SKC
     FM211900 28008KT P6SM SKC
     FM220300 VRB04KT P6SM SKC=



000
FTUS46 KMTR 210500
TAFSNS
TAF
KSNS 210534Z 2106/2206 30003KT P6SM SKC
     FM210700 VRB03KT P6SM SKC
     FM211600 14004KT P6SM SKC
     FM212000 28013KT P6SM SKC
     FM220200 28005KT P6SM SKC=



000
FTUS46 KMTR 210500
TAFSFO
TAF
KSFO 210534Z 2106/2212 28005KT P6SM SKC
     FM212100 28015KT P6SM SKC
     FM220300 28006KT P6SM SKC=



000
FTUS46 KMTR 210500
TAFOAK
TAF
KOAK 210534Z 2106/2212 30006KT P6SM FEW030
     FM211000 VRB04KT P6SM FEW030
     FM212100 29012KT P6SM SKC
     FM220400 29006KT P6SM SKC=



000
FTUS46 KMTR 210500
TAFSTS
TAF
KSTS 210534Z 2106/2206 27003KT P6SM SKC
     FM210700 00000KT P6SM SKC
     FM211900 VRB03KT P6SM SKC
     FM212100 28005KT P6SM SKC=



000
FTUS46 KMTR 210500
TAFSJC
TAF
KSJC 210534Z 2106/2206 28004KT P6SM FEW018
     FM210700 VRB03KT P6SM FEW018
     FM211900 31008KT P6SM SKC
     FM220500 VRB03KT P6SM SKC=



000
FTUS46 KMTR 210100 AAA
TAFSJC
TAF AMD
KSJC 210129Z 2101/2124 VRB03KT P6SM FEW010 SCT040 SCT060
     FM210400 29007KT P6SM FEW010 SCT060
     FM210700 VRB03KT P6SM FEW015
     FM211900 31008KT P6SM SKC=



000
FTUS46 KMTR 202300
TAFSFO
TAF
KSFO 202330Z 2100/2206 28014KT P6SM SCT028 SCT060 BKN090
     FM210400 27009KT P6SM FEW010 SCT060
     FM211200 28005KT P6SM FEW015
     FM212100 28015KT P6SM SKC
     FM220300 28006KT P6SM SKC=



000
FTUS46 KMTR 202300
TAFOAK
TAF
KOAK 202330Z 2100/2206 27015KT P6SM FEW010 BKN060
     FM210400 28008KT P6SM FEW010 SCT060
     FM211000 VRB04KT P6SM FEW015
     FM212100 29012KT P6SM SKC
     FM220400 29006KT P6SM SKC=



000
FTUS46 KMTR 202300
TAFSTS
TAF
KSTS 202330Z 2100/2124 25011KT P6SM BKN060
     FM210300 25005KT P6SM SKC
     FM210700 00000KT P6SM SKC
     FM211000 00000KT 3SM BR OVC006
     FM211600 00000KT P6SM SKC
     FM211900 VRB03KT P6SM SKC=



000
FTUS46 KMTR 202300
TAFMRY
TAF
KMRY 202330Z 2100/2124 24005KT P6SM FEW026 BKN035 OVC045
     FM210700 VRB04KT P6SM OVC015
     FM211500 VRB04KT P6SM SKC
     FM211900 28008KT P6SM SKC=



000
FTUS46 KMTR 202300
TAFSNS
TAF
KSNS 202330Z 2100/2124 27010KT P6SM BKN027 OVC040
     FM210300 27005KT P6SM FEW025 BKN050
     FM210700 VRB03KT P6SM SCT050
     FM211600 14004KT P6SM SKC
     FM212000 28013KT P6SM SKC=



000
FTUS46 KMTR 202300
TAFSJC
TAF
KSJC 202330Z 2100/2124 11005KT P6SM FEW011 SCT050 BKN120
     FM210400 29007KT P6SM FEW011 SCT060
     FM210700 VRB03KT P6SM FEW015
     FM211900 31008KT P6SM SKC=



000
FTUS46 KMTR 202300 AAB
TAFSJC
TAF AMD
KSJC 202307Z 2023/2118 VRB05KT P6SM FEW011 SCT050 BKN120
     FM210100 31009KT P6SM FEW011 SCT150
     FM210700 VRB03KT P6SM FEW012=



000
FTUS46 KMTR 202100 AAA
TAFMRY
TAF AMD
KMRY 202127Z 2021/2118 24010KT 5SM BR VCSH BKN008 OVC020
     FM202300 26010KT P6SM SCT025 BKN050
     FM210300 23004KT P6SM SCT020=



000
FTUS46 KMTR 202100 AAA
TAFSJC
TAF AMD
KSJC 202124Z 2021/2118 32012G20KT P6SM -SHRA BKN020 OVC040
     FM202300 30012KT P6SM SCT025 BKN035
     FM210400 29007KT P6SM SCT025
     FM210700 VRB03KT P6SM FEW015=



000
FTUS46 KMTR 202100 AAA
TAFSFO
TAF AMD
KSFO 202102Z 2021/2124 28015KT P6SM FEW010 BKN045
     FM210400 27009KT P6SM FEW010 SCT050
     FM211200 28005KT P6SM SCT015
     FM212100 28015KT P6SM FEW010=



000
FTUS46 KMTR 201700
TAFSTS
TAF
KSTS 201720Z 2018/2118 VRB03KT P6SM BKN015 OVC030
      TEMPO 2018/2019 2SM -RA BR BKN008
     FM202000 25010KT P6SM SCT025 BKN035
     FM210300 27005KT P6SM SCT020
     FM211000 VRB03KT 3SM BR OVC006=



000
FTUS46 KMTR 201700
TAFMRY
TAF
KMRY 201720Z 2018/2118 10004KT P6SM SKC
     FM201900 26008KT P6SM VCSH BKN025 OVC050
     FM202300 26010KT P6SM SCT025 BKN050
     FM210300 23004KT P6SM SCT020=



000
FTUS46 KMTR 201700
TAFSJC
TAF
KSJC 201720Z 2018/2118 12010KT P6SM SCT025 BKN035
      TEMPO 2018/2021 -RA BKN020
     FM202100 30012KT P6SM SCT025 BKN035
     FM210400 29007KT P6SM SCT025
     FM210700 VRB03KT P6SM FEW015=



000
FTUS46 KMTR 201700
TAFSNS
TAF
KSNS 201720Z 2018/2118 11004KT P6SM SKC
     FM201900 27009KT P6SM VCSH BKN025 OVC050
     FM202300 27012KT P6SM SCT025 BKN050
     FM210300 27005KT P6SM SCT020=



000
FTUS46 KMTR 201700
TAFOAK
TAF
KOAK 201720Z 2018/2124 28010KT P6SM SCT020 BKN025
      TEMPO 2018/2019 3SM -RA BR BKN015
     FM202000 28012KT P6SM SCT025 BKN035
     FM210400 28008KT P6SM SCT020
     FM211000 VRB04KT P6SM FEW015
     FM212100 29012KT P6SM SKC=



000
FTUS46 KMTR 201700
TAFSFO
TAF
KSFO 201720Z 2018/2124 30007KT P6SM SCT020 BKN040
      TEMPO 2018/2019 2SM -RA BR BKN018
     FM202000 28015KT P6SM SCT025 BKN035
     FM210400 27009KT P6SM SCT020 SCT030
     FM211200 28005KT P6SM SCT015
     FM212100 28015KT P6SM FEW010=



000
FTUS46 KMTR 201600 AAB
TAFSTS
TAF AMD
KSTS 201633Z 2017/2112 VRB03KT P6SM BKN015 OVC030
      TEMPO 2017/2019 2SM -RA BR BKN008
     FM201900 23006KT P6SM SCT015 BKN025
     FM202000 25010KT P6SM SCT025 BKN035
     FM210300 27005KT P6SM SCT020
     FM211000 VRB03KT 3SM BR OVC006=



000
FTUS46 KMTR 201500 AAA
TAFSNS
TAF AMD
KSNS 201531Z 2016/2112 11004KT P6SM SCT025
     FM201900 27009KT P6SM VCSH BKN025 OVC050
     FM202300 27012KT P6SM SCT025 BKN050
     FM210300 27005KT P6SM BKN020=



000
FTUS46 KMTR 201500 AAB
TAFSFO
TAF AMD
KSFO 201506Z 2015/2118 14006KT P6SM SCT020
     FM201600 15005KT P6SM BKN020
      TEMPO 2016/2019 6SM -RA BR BKN018
     FM202000 28015KT P6SM SCT025 BKN035
     FM210400 27009KT P6SM SCT020 SCT030
     FM211200 28005KT P6SM BKN015=



000
FTUS46 KMTR 201400 AAA
TAFMRY
TAF AMD
KMRY 201435Z 2015/2112 14005KT P6SM SCT020
     FM201700 23005KT P6SM SCT015 BKN025
     FM202000 26008KT P6SM VCSH BKN025 OVC050
     FM202300 26010KT P6SM SCT025 BKN050
     FM210300 23006KT P6SM BKN020=



000
FTUS46 KMTR 201300 AAA
TAFSJC
TAF AMD
KSJC 201352Z 2014/2112 13006KT P6SM FEW010 SCT025
     FM201600 15007KT P6SM SCT025 BKN035
      TEMPO 2018/2021 -RA BKN035
     FM202100 30012KT P6SM SCT025 BKN035
     FM210400 29007KT P6SM SCT025
     FM211000 VRB03KT P6SM SCT015=



000
FTUS46 KMTR 201300 AAA
TAFSTS
TAF AMD
KSTS 201348Z 2014/2112 18003KT P6SM SCT015 BKN025 OVC040
      TEMPO 2014/2018 5SM -RA BKN015
     FM201800 23004KT P6SM SCT015 BKN025
     FM202000 25010KT P6SM SCT025 BKN035
     FM210300 27005KT P6SM SCT020
     FM211000 VRB03KT 3SM BR OVC006=



000
FTUS46 KMTR 201300 AAA
TAFSFO
TAF AMD
KSFO 201308Z 2013/2118 17006KT P6SM BKN025
      TEMPO 2016/2019 6SM -RA BR BKN018
     FM202000 28015KT P6SM SCT025 BKN035
     FM210400 27009KT P6SM SCT020 SCT030
     FM211200 28005KT P6SM BKN015=



000
FTUS46 KMTR 201300 AAA
TAFOAK
TAF AMD
KOAK 201307Z 2013/2118 17006KT P6SM BKN025
      TEMPO 2016/2019 6SM -RA BR
     FM202000 28012KT P6SM SCT025 BKN035
     FM210400 28008KT P6SM SCT020
     FM211200 30004KT P6SM BKN015=



    US Dept of Commerce
    National Oceanic and Atmospheric Administration
    National Weather Service
    1325 East West Highway
    Silver Spring, MD 20910
    Page Author: NWS Internet Services Team
Disclaimer
Information Quality
Credits
Glossary
Privacy Policy
Freedom of Information Act (FOIA)
About Us
Career Opportunities